sensor_id;sensor_type;location;lat;lon;timestamp;temperature;humidity
53053;DHT22;38934;52.690;6.184;2023-04-01T00:00:24;9.90;99.90
53053;DHT22;38934;52.690;6.184;2023-04-01T00:02:50;9.70;99.90
53053;DHT22;38934;52.690;6.184;2023-04-01T00:05:16;9.60;99.90
53053;DHT22;38934;52.690;6.184;2023-04-01T00:07:42;9.60;99.90
53053;DHT22;38934;52.690;6.184;2023-04-01T00:10:10;9.60;99.90
53053;DHT22;38934;52.690;6.184;2023-04-01T00:12:36;9.60;99.90
53053;DHT22;38934;52.690;6.184;2023-04-01T00:15:04;9.60;99.90
53053;DHT22;38934;52.690;6.184;2023-04-01T00:17:30;9.60;99.90
53053;DHT22;38934;52.690;6.184;2023-04-01T00:19:56;9.60;99.90
53053;DHT22;38934;52.690;6.184;2023-04-01T00:22:25;9.60;99.90
53053;DHT22;38934;52.690;6.184;2023-04-01T00:24:52;9.60;99.90
53053;DHT22;38934;52.690;6.184;2023-04-01T00:27:18;9.60;99.90
53053;DHT22;38934;52.690;6.184;2023-04-01T00:29:44;9.60;99.90
53053;DHT22;38934;52.690;6.184;2023-04-01T00:32:11;9.70;99.90
53053;DHT22;38934;52.690;6.184;2023-04-01T00:34:36;9.60;99.90
53053;DHT22;38934;52.690;6.184;2023-04-01T00:37:03;9.60;99.90
53053;DHT22;38934;52.690;6.184;2023-04-01T00:39:30;9.60;99.90
53053;DHT22;38934;52.690;6.184;2023-04-01T00:41:56;9.70;99.90
53053;DHT22;38934;52.690;6.184;2023-04-01T00:44:25;9.70;99.90
53053;DHT22;38934;52.690;6.184;2023-04-01T00:46:51;9.60;99.90
53053;DHT22;38934;52.690;6.184;2023-04-01T00:49:23;9.70;99.90
53053;DHT22;38934;52.690;6.184;2023-04-01T00:51:53;9.60;99.90
53053;DHT22;38934;52.690;6.184;2023-04-01T00:54:22;9.70;99.90
53053;DHT22;38934;52.690;6.184;2023-04-01T00:57:03;9.70;99.90
53053;DHT22;38934;52.690;6.184;2023-04-01T00:59:34;9.70;99.90
53053;DHT22;38934;52.690;6.184;2023-04-01T01:02:05;9.70;99.90
53053;DHT22;38934;52.690;6.184;2023-04-01T01:04:34;9.70;99.90
53053;DHT22;38934;52.690;6.184;2023-04-01T01:07:16;9.70;99.90
53053;DHT22;38934;52.690;6.184;2023-04-01T01:12:29;9.70;99.90
53053;DHT22;38934;52.690;6.184;2023-04-01T01:18:00;9.70;99.90
53053;DHT22;38934;52.690;6.184;2023-04-01T01:24:01;9.70;99.90
53053;DHT22;38934;52.690;6.184;2023-04-01T01:34:07;9.70;99.90
53053;DHT22;38934;52.690;6.184;2023-04-01T01:36:34;9.70;99.90
53053;DHT22;38934;52.690;6.184;2023-04-01T01:39:03;9.70;99.90
53053;DHT22;38934;52.690;6.184;2023-04-01T01:41:31;9.70;99.90
53053;DHT22;38934;52.690;6.184;2023-04-01T01:43:59;9.70;99.90
53053;DHT22;38934;52.690;6.184;2023-04-01T01:46:28;9.70;99.90
53053;DHT22;38934;52.690;6.184;2023-04-01T01:48:55;9.70;99.90
53053;DHT22;38934;52.690;6.184;2023-04-01T01:51:21;9.70;99.90
53053;DHT22;38934;52.690;6.184;2023-04-01T01:53:48;9.70;99.90
53053;DHT22;38934;52.690;6.184;2023-04-01T01:56:13;9.70;99.90
53053;DHT22;38934;52.690;6.184;2023-04-01T01:58:43;10.20;99.90
53053;DHT22;38934;52.690;6.184;2023-04-01T02:01:13;9.70;99.90
53053;DHT22;38934;52.690;6.184;2023-04-01T02:03:41;9.70;99.90
53053;DHT22;38934;52.690;6.184;2023-04-01T02:06:10;9.70;99.90
53053;DHT22;38934;52.690;6.184;2023-04-01T02:08:50;9.70;99.90
53053;DHT22;38934;52.690;6.184;2023-04-01T02:11:18;9.70;99.90
53053;DHT22;38934;52.690;6.184;2023-04-01T02:16:31;9.70;99.90
53053;DHT22;38934;52.690;6.184;2023-04-01T02:18:58;10.00;99.90
53053;DHT22;38934;52.690;6.184;2023-04-01T02:21:28;9.70;99.90
53053;DHT22;38934;52.690;6.184;2023-04-01T02:23:56;9.70;99.90
53053;DHT22;38934;52.690;6.184;2023-04-01T02:26:23;9.70;99.90
53053;DHT22;38934;52.690;6.184;2023-04-01T02:28:53;9.70;99.90
53053;DHT22;38934;52.690;6.184;2023-04-01T02:31:20;9.70;99.90
53053;DHT22;38934;52.690;6.184;2023-04-01T02:33:46;9.70;99.90
53053;DHT22;38934;52.690;6.184;2023-04-01T02:36:14;9.70;99.90
53053;DHT22;38934;52.690;6.184;2023-04-01T02:38:41;9.70;99.90
53053;DHT22;38934;52.690;6.184;2023-04-01T02:41:07;9.80;99.90
53053;DHT22;38934;52.690;6.184;2023-04-01T02:43:33;9.70;99.90
53053;DHT22;38934;52.690;6.184;2023-04-01T02:45:59;9.80;99.90
53053;DHT22;38934;52.690;6.184;2023-04-01T02:48:25;10.10;99.90
53053;DHT22;38934;52.690;6.184;2023-04-01T02:50:50;9.70;99.90
53053;DHT22;38934;52.690;6.184;2023-04-01T02:53:16;9.70;99.90
53053;DHT22;38934;52.690;6.184;2023-04-01T02:55:42;10.10;99.90
53053;DHT22;38934;52.690;6.184;2023-04-01T02:58:08;9.70;99.90
53053;DHT22;38934;52.690;6.184;2023-04-01T03:00:34;9.70;99.90
53053;DHT22;38934;52.690;6.184;2023-04-01T03:02:59;9.70;99.90
53053;DHT22;38934;52.690;6.184;2023-04-01T03:05:25;10.10;99.90
53053;DHT22;38934;52.690;6.184;2023-04-01T03:07:51;9.70;99.90
53053;DHT22;38934;52.690;6.184;2023-04-01T03:10:16;9.70;99.90
53053;DHT22;38934;52.690;6.184;2023-04-01T03:12:42;9.70;99.90
53053;DHT22;38934;52.690;6.184;2023-04-01T03:15:11;10.50;99.90
53053;DHT22;38934;52.690;6.184;2023-04-01T03:17:38;10.00;99.90
53053;DHT22;38934;52.690;6.184;2023-04-01T03:20:04;9.90;99.90
53053;DHT22;38934;52.690;6.184;2023-04-01T03:22:31;9.70;99.90
53053;DHT22;38934;52.690;6.184;2023-04-01T03:24:56;9.70;99.90
53053;DHT22;38934;52.690;6.184;2023-04-01T03:27:22;9.70;99.90
53053;DHT22;38934;52.690;6.184;2023-04-01T03:29:48;9.70;99.90
53053;DHT22;38934;52.690;6.184;2023-04-01T03:32:14;9.70;99.90
53053;DHT22;38934;52.690;6.184;2023-04-01T03:34:40;9.70;99.90
53053;DHT22;38934;52.690;6.184;2023-04-01T03:37:06;9.70;99.90
53053;DHT22;38934;52.690;6.184;2023-04-01T03:39:32;9.90;99.90
53053;DHT22;38934;52.690;6.184;2023-04-01T03:41:58;9.70;99.90
53053;DHT22;38934;52.690;6.184;2023-04-01T03:44:23;9.70;99.90
53053;DHT22;38934;52.690;6.184;2023-04-01T03:46:49;9.70;99.90
53053;DHT22;38934;52.690;6.184;2023-04-01T03:49:15;9.70;99.90
53053;DHT22;38934;52.690;6.184;2023-04-01T03:51:42;9.70;99.90
53053;DHT22;38934;52.690;6.184;2023-04-01T03:54:08;9.60;99.90
53053;DHT22;38934;52.690;6.184;2023-04-01T03:56:34;9.70;99.90
53053;DHT22;38934;52.690;6.184;2023-04-01T03:59:07;9.70;99.90
53053;DHT22;38934;52.690;6.184;2023-04-01T04:01:33;9.60;99.90
53053;DHT22;38934;52.690;6.184;2023-04-01T04:03:59;9.70;99.90
53053;DHT22;38934;52.690;6.184;2023-04-01T04:06:26;9.70;99.90
53053;DHT22;38934;52.690;6.184;2023-04-01T04:08:51;9.70;99.90
53053;DHT22;38934;52.690;6.184;2023-04-01T04:11:18;9.70;99.90
53053;DHT22;38934;52.690;6.184;2023-04-01T04:13:44;9.70;99.90
53053;DHT22;38934;52.690;6.184;2023-04-01T04:16:10;9.70;99.90
53053;DHT22;38934;52.690;6.184;2023-04-01T04:18:36;9.60;99.90
53053;DHT22;38934;52.690;6.184;2023-04-01T04:21:03;9.70;99.90
53053;DHT22;38934;52.690;6.184;2023-04-01T04:23:29;9.80;99.90
53053;DHT22;38934;52.690;6.184;2023-04-01T04:26:04;10.10;99.90
53053;DHT22;38934;52.690;6.184;2023-04-01T04:28:31;9.70;99.90
53053;DHT22;38934;52.690;6.184;2023-04-01T04:30:57;9.70;99.90
53053;DHT22;38934;52.690;6.184;2023-04-01T04:33:24;9.60;99.90
53053;DHT22;38934;52.690;6.184;2023-04-01T04:35:50;9.70;99.90
53053;DHT22;38934;52.690;6.184;2023-04-01T04:38:16;9.70;99.90
53053;DHT22;38934;52.690;6.184;2023-04-01T04:40:42;9.70;99.90
53053;DHT22;38934;52.690;6.184;2023-04-01T04:43:13;10.30;99.90
53053;DHT22;38934;52.690;6.184;2023-04-01T04:45:39;9.70;99.90
53053;DHT22;38934;52.690;6.184;2023-04-01T04:48:10;9.70;99.90
53053;DHT22;38934;52.690;6.184;2023-04-01T04:50:36;9.70;99.90
53053;DHT22;38934;52.690;6.184;2023-04-01T04:53:02;10.70;99.90
53053;DHT22;38934;52.690;6.184;2023-04-01T04:55:28;10.40;99.90
53053;DHT22;38934;52.690;6.184;2023-04-01T04:57:54;10.00;99.90
53053;DHT22;38934;52.690;6.184;2023-04-01T05:00:19;10.40;99.90
53053;DHT22;38934;52.690;6.184;2023-04-01T05:02:45;9.70;99.90
53053;DHT22;38934;52.690;6.184;2023-04-01T05:05:10;9.70;99.90
53053;DHT22;38934;52.690;6.184;2023-04-01T05:07:36;9.70;99.90
53053;DHT22;38934;52.690;6.184;2023-04-01T05:10:02;9.70;99.90
53053;DHT22;38934;52.690;6.184;2023-04-01T05:12:28;9.70;99.90
53053;DHT22;38934;52.690;6.184;2023-04-01T05:14:54;10.20;99.90
53053;DHT22;38934;52.690;6.184;2023-04-01T05:17:20;9.70;99.90
53053;DHT22;38934;52.690;6.184;2023-04-01T05:19:45;9.70;99.90
53053;DHT22;38934;52.690;6.184;2023-04-01T05:22:11;9.70;99.90
53053;DHT22;38934;52.690;6.184;2023-04-01T05:24:37;9.70;99.90
53053;DHT22;38934;52.690;6.184;2023-04-01T05:27:02;9.80;99.90
53053;DHT22;38934;52.690;6.184;2023-04-01T05:29:29;9.70;99.90
53053;DHT22;38934;52.690;6.184;2023-04-01T05:31:55;9.70;99.90
53053;DHT22;38934;52.690;6.184;2023-04-01T05:34:20;9.70;99.90
53053;DHT22;38934;52.690;6.184;2023-04-01T05:36:46;9.70;99.90
53053;DHT22;38934;52.690;6.184;2023-04-01T05:39:12;9.70;99.90
53053;DHT22;38934;52.690;6.184;2023-04-01T05:41:38;9.70;99.90
53053;DHT22;38934;52.690;6.184;2023-04-01T05:44:04;9.80;99.90
53053;DHT22;38934;52.690;6.184;2023-04-01T05:46:31;10.40;99.90
53053;DHT22;38934;52.690;6.184;2023-04-01T05:48:57;9.60;99.90
53053;DHT22;38934;52.690;6.184;2023-04-01T05:51:23;9.60;99.90
53053;DHT22;38934;52.690;6.184;2023-04-01T05:53:49;9.60;99.90
53053;DHT22;38934;52.690;6.184;2023-04-01T05:56:15;9.60;99.90
53053;DHT22;38934;52.690;6.184;2023-04-01T05:58:40;9.60;99.90
53053;DHT22;38934;52.690;6.184;2023-04-01T06:01:08;9.70;99.90
53053;DHT22;38934;52.690;6.184;2023-04-01T06:03:34;9.70;99.90
53053;DHT22;38934;52.690;6.184;2023-04-01T06:06:00;9.70;99.90
53053;DHT22;38934;52.690;6.184;2023-04-01T06:08:27;9.70;99.90
53053;DHT22;38934;52.690;6.184;2023-04-01T06:11:18;10.40;99.90
53053;DHT22;38934;52.690;6.184;2023-04-01T06:14:27;9.70;99.90
53053;DHT22;38934;52.690;6.184;2023-04-01T06:17:07;9.70;99.90
53053;DHT22;38934;52.690;6.184;2023-04-01T06:25:29;9.70;99.90
53053;DHT22;38934;52.690;6.184;2023-04-01T06:30:47;9.70;99.90
53053;DHT22;38934;52.690;6.184;2023-04-01T06:33:43;9.80;99.90
53053;DHT22;38934;52.690;6.184;2023-04-01T06:44:29;9.90;99.90
53053;DHT22;38934;52.690;6.184;2023-04-01T06:53:35;10.00;99.90
53053;DHT22;38934;52.690;6.184;2023-04-01T06:55:46;10.80;99.90
53053;DHT22;38934;52.690;6.184;2023-04-01T06:58:35;10.00;99.90
53053;DHT22;38934;52.690;6.184;2023-04-01T07:01:07;10.00;99.90
53053;DHT22;38934;52.690;6.184;2023-04-01T07:03:39;10.10;99.90
53053;DHT22;38934;52.690;6.184;2023-04-01T07:06:58;10.10;99.90
53053;DHT22;38934;52.690;6.184;2023-04-01T07:09:02;10.10;99.90
53053;DHT22;38934;52.690;6.184;2023-04-01T07:11:33;10.20;99.90
53053;DHT22;38934;52.690;6.184;2023-04-01T07:14:25;10.10;99.90
53053;DHT22;38934;52.690;6.184;2023-04-01T07:17:04;10.20;99.90
53053;DHT22;38934;52.690;6.184;2023-04-01T07:20:05;10.20;99.90
53053;DHT22;38934;52.690;6.184;2023-04-01T07:22:38;10.40;99.90
53053;DHT22;38934;52.690;6.184;2023-04-01T07:25:17;10.30;99.90
53053;DHT22;38934;52.690;6.184;2023-04-01T07:27:44;10.40;99.90
53053;DHT22;38934;52.690;6.184;2023-04-01T07:30:18;10.40;99.90
53053;DHT22;38934;52.690;6.184;2023-04-01T07:32:52;10.40;99.90
53053;DHT22;38934;52.690;6.184;2023-04-01T07:35:42;10.50;99.90
53053;DHT22;38934;52.690;6.184;2023-04-01T07:38:26;10.60;99.90
53053;DHT22;38934;52.690;6.184;2023-04-01T07:41:07;10.70;99.90
53053;DHT22;38934;52.690;6.184;2023-04-01T07:49:16;10.80;99.90
53053;DHT22;38934;52.690;6.184;2023-04-01T07:52:27;10.90;99.90
53053;DHT22;38934;52.690;6.184;2023-04-01T07:57:43;11.10;99.90
53053;DHT22;38934;52.690;6.184;2023-04-01T08:00:19;11.50;99.90
53053;DHT22;38934;52.690;6.184;2023-04-01T08:03:15;11.10;99.90
53053;DHT22;38934;52.690;6.184;2023-04-01T08:05:47;11.20;99.90
53053;DHT22;38934;52.690;6.184;2023-04-01T08:10:51;11.40;99.90
53053;DHT22;38934;52.690;6.184;2023-04-01T08:16:45;11.50;99.90
53053;DHT22;38934;52.690;6.184;2023-04-01T08:22:30;11.40;99.90
53053;DHT22;38934;52.690;6.184;2023-04-01T08:24:55;11.60;99.90
53053;DHT22;38934;52.690;6.184;2023-04-01T08:27:38;11.70;99.90
53053;DHT22;38934;52.690;6.184;2023-04-01T08:30:25;11.70;99.90
53053;DHT22;38934;52.690;6.184;2023-04-01T08:36:09;11.60;99.90
53053;DHT22;38934;52.690;6.184;2023-04-01T08:38:55;11.60;99.90
53053;DHT22;38934;52.690;6.184;2023-04-01T08:41:31;11.60;99.90
53053;DHT22;38934;52.690;6.184;2023-04-01T08:49:56;11.60;99.90
53053;DHT22;38934;52.690;6.184;2023-04-01T08:52:30;11.60;99.90
53053;DHT22;38934;52.690;6.184;2023-04-01T08:55:57;11.60;99.90
53053;DHT22;38934;52.690;6.184;2023-04-01T09:00:56;11.40;99.90
53053;DHT22;38934;52.690;6.184;2023-04-01T09:03:37;11.40;99.90
53053;DHT22;38934;52.690;6.184;2023-04-01T09:06:34;11.40;99.90
53053;DHT22;38934;52.690;6.184;2023-04-01T09:24:05;11.10;99.90
53053;DHT22;38934;52.690;6.184;2023-04-01T09:26:25;11.10;99.90
53053;DHT22;38934;52.690;6.184;2023-04-01T09:31:53;11.20;99.90
53053;DHT22;38934;52.690;6.184;2023-04-01T09:34:57;11.20;99.90
53053;DHT22;38934;52.690;6.184;2023-04-01T09:43:22;11.00;99.90
53053;DHT22;38934;52.690;6.184;2023-04-01T09:46:16;11.10;99.90
53053;DHT22;38934;52.690;6.184;2023-04-01T10:22:52;11.60;99.90
53053;DHT22;38934;52.690;6.184;2023-04-01T10:25:48;11.50;99.90
53053;DHT22;38934;52.690;6.184;2023-04-01T10:28:36;11.50;99.90
53053;DHT22;38934;52.690;6.184;2023-04-01T10:40:35;11.60;99.90
53053;DHT22;38934;52.690;6.184;2023-04-01T10:57:09;12.80;99.90
53053;DHT22;38934;52.690;6.184;2023-04-01T11:14:56;12.20;99.90
53053;DHT22;38934;52.690;6.184;2023-04-01T11:26:29;12.50;99.90
53053;DHT22;38934;52.690;6.184;2023-04-01T11:33:31;12.50;99.90
53053;DHT22;38934;52.690;6.184;2023-04-01T11:43:39;12.20;99.90
53053;DHT22;38934;52.690;6.184;2023-04-01T11:49:57;11.60;99.90
53053;DHT22;38934;52.690;6.184;2023-04-01T11:52:53;11.40;99.90
53053;DHT22;38934;52.690;6.184;2023-04-01T12:11:44;10.70;99.90
53053;DHT22;38934;52.690;6.184;2023-04-01T12:20:01;10.70;99.90
53053;DHT22;38934;52.690;6.184;2023-04-01T12:22:34;10.40;99.90
53053;DHT22;38934;52.690;6.184;2023-04-01T12:28:08;10.30;99.90
53053;DHT22;38934;52.690;6.184;2023-04-01T12:30:58;10.10;99.90
53053;DHT22;38934;52.690;6.184;2023-04-01T12:50:28;10.00;99.90
53053;DHT22;38934;52.690;6.184;2023-04-01T12:55:45;10.00;99.90
53053;DHT22;38934;52.690;6.184;2023-04-01T12:58:47;10.10;99.90
53053;DHT22;38934;52.690;6.184;2023-04-01T13:07:20;10.30;99.90
53053;DHT22;38934;52.690;6.184;2023-04-01T13:10:02;10.30;99.90
53053;DHT22;38934;52.690;6.184;2023-04-01T13:15:49;10.30;99.90
53053;DHT22;38934;52.690;6.184;2023-04-01T13:28:48;10.30;99.90
53053;DHT22;38934;52.690;6.184;2023-04-01T13:40:20;9.80;99.90
53053;DHT22;38934;52.690;6.184;2023-04-01T13:42:59;9.80;99.90
53053;DHT22;38934;52.690;6.184;2023-04-01T13:48:31;9.70;99.90
53053;DHT22;38934;52.690;6.184;2023-04-01T13:53:48;9.60;99.90
53053;DHT22;38934;52.690;6.184;2023-04-01T13:56:42;9.60;99.90
53053;DHT22;38934;52.690;6.184;2023-04-01T14:08:07;9.50;99.90
53053;DHT22;38934;52.690;6.184;2023-04-01T14:13:41;9.50;99.90
53053;DHT22;38934;52.690;6.184;2023-04-01T14:30:52;9.60;99.90
53053;DHT22;38934;52.690;6.184;2023-04-01T14:36:43;9.60;99.90
53053;DHT22;38934;52.690;6.184;2023-04-01T14:45:07;9.40;99.90
53053;DHT22;38934;52.690;6.184;2023-04-01T14:47:54;9.40;99.90
53053;DHT22;38934;52.690;6.184;2023-04-01T14:50:24;9.40;99.90
53053;DHT22;38934;52.690;6.184;2023-04-01T14:53:58;9.40;99.90
53053;DHT22;38934;52.690;6.184;2023-04-01T14:55:50;9.30;99.90
53053;DHT22;38934;52.690;6.184;2023-04-01T14:58:18;9.30;99.90
53053;DHT22;38934;52.690;6.184;2023-04-01T15:06:13;9.20;99.90
53053;DHT22;38934;52.690;6.184;2023-04-01T15:08:51;9.20;99.90
53053;DHT22;38934;52.690;6.184;2023-04-01T15:17:43;9.20;99.90
53053;DHT22;38934;52.690;6.184;2023-04-01T15:23:24;9.20;99.90
53053;DHT22;38934;52.690;6.184;2023-04-01T15:26:20;9.20;99.90
53053;DHT22;38934;52.690;6.184;2023-04-01T15:32:08;9.20;99.90
53053;DHT22;38934;52.690;6.184;2023-04-01T15:34:50;9.20;99.90
53053;DHT22;38934;52.690;6.184;2023-04-01T15:45:49;9.70;99.90
53053;DHT22;38934;52.690;6.184;2023-04-01T15:54:31;9.10;99.90
53053;DHT22;38934;52.690;6.184;2023-04-01T15:57:13;9.10;99.90
53053;DHT22;38934;52.690;6.184;2023-04-01T16:00:06;9.00;99.90
53053;DHT22;38934;52.690;6.184;2023-04-01T16:13:46;8.70;99.90
53053;DHT22;38934;52.690;6.184;2023-04-01T16:16:41;9.00;99.90
53053;DHT22;38934;52.690;6.184;2023-04-01T16:19:44;9.00;99.90
53053;DHT22;38934;52.690;6.184;2023-04-01T16:22:37;8.60;99.90
53053;DHT22;38934;52.690;6.184;2023-04-01T16:25:41;8.60;99.90
53053;DHT22;38934;52.690;6.184;2023-04-01T16:28:23;8.60;99.90
53053;DHT22;38934;52.690;6.184;2023-04-01T16:31:15;8.60;99.90
53053;DHT22;38934;52.690;6.184;2023-04-01T16:34:02;8.60;99.90
53053;DHT22;38934;52.690;6.184;2023-04-01T16:47:54;8.70;99.90
53053;DHT22;38934;52.690;6.184;2023-04-01T16:50:24;8.60;99.90
53053;DHT22;38934;52.690;6.184;2023-04-01T16:53:08;8.70;99.90
53053;DHT22;38934;52.690;6.184;2023-04-01T16:55:49;8.70;99.90
53053;DHT22;38934;52.690;6.184;2023-04-01T16:58:24;8.60;99.90
53053;DHT22;38934;52.690;6.184;2023-04-01T17:01:20;8.60;99.90
53053;DHT22;38934;52.690;6.184;2023-04-01T17:03:52;8.60;99.90
53053;DHT22;38934;52.690;6.184;2023-04-01T17:14:42;8.50;99.90
53053;DHT22;38934;52.690;6.184;2023-04-01T17:17:45;8.40;99.90
53053;DHT22;38934;52.690;6.184;2023-04-01T17:23:01;8.40;99.90
53053;DHT22;38934;52.690;6.184;2023-04-01T17:25:48;9.00;99.90
53053;DHT22;38934;52.690;6.184;2023-04-01T17:28:46;8.20;99.90
53053;DHT22;38934;52.690;6.184;2023-04-01T17:32:08;8.30;99.90
53053;DHT22;38934;52.690;6.184;2023-04-01T17:35:19;8.20;99.90
53053;DHT22;38934;52.690;6.184;2023-04-01T17:41:15;8.00;99.90
53053;DHT22;38934;52.690;6.184;2023-04-01T17:49:30;7.80;99.90
53053;DHT22;38934;52.690;6.184;2023-04-01T17:54:56;7.70;99.90
53053;DHT22;38934;52.690;6.184;2023-04-01T18:08:33;7.40;99.90
53053;DHT22;38934;52.690;6.184;2023-04-01T18:13:54;7.30;99.90
53053;DHT22;38934;52.690;6.184;2023-04-01T18:21:49;7.20;99.90
53053;DHT22;38934;52.690;6.184;2023-04-01T18:24:35;7.20;99.90
53053;DHT22;38934;52.690;6.184;2023-04-01T18:27:23;7.20;99.90
53053;DHT22;38934;52.690;6.184;2023-04-01T18:29:55;7.20;99.90
53053;DHT22;38934;52.690;6.184;2023-04-01T18:35:24;7.20;99.90
53053;DHT22;38934;52.690;6.184;2023-04-01T18:40:50;7.20;99.90
53053;DHT22;38934;52.690;6.184;2023-04-01T18:43:22;7.10;99.90
53053;DHT22;38934;52.690;6.184;2023-04-01T18:46:00;7.10;99.90
53053;DHT22;38934;52.690;6.184;2023-04-01T18:51:18;7.10;99.90
53053;DHT22;38934;52.690;6.184;2023-04-01T18:53:59;7.00;99.90
53053;DHT22;38934;52.690;6.184;2023-04-01T18:56:45;7.00;99.90
53053;DHT22;38934;52.690;6.184;2023-04-01T18:59:39;6.90;99.90
53053;DHT22;38934;52.690;6.184;2023-04-01T19:02:29;6.90;99.90
53053;DHT22;38934;52.690;6.184;2023-04-01T19:05:07;6.80;99.90
53053;DHT22;38934;52.690;6.184;2023-04-01T19:13:14;6.70;99.90
53053;DHT22;38934;52.690;6.184;2023-04-01T19:21:22;6.70;99.90
53053;DHT22;38934;52.690;6.184;2023-04-01T19:29:45;6.60;99.90
53053;DHT22;38934;52.690;6.184;2023-04-01T19:35:24;6.60;99.90
53053;DHT22;38934;52.690;6.184;2023-04-01T19:40:44;6.60;99.90
53053;DHT22;38934;52.690;6.184;2023-04-01T19:46:14;6.50;99.90
53053;DHT22;38934;52.690;6.184;2023-04-01T19:48:51;6.50;99.90
53053;DHT22;38934;52.690;6.184;2023-04-01T19:51:43;6.50;99.90
53053;DHT22;38934;52.690;6.184;2023-04-01T19:57:24;6.40;99.90
53053;DHT22;38934;52.690;6.184;2023-04-01T20:02:26;6.40;99.90
53053;DHT22;38934;52.690;6.184;2023-04-01T20:04:56;6.40;99.90
53053;DHT22;38934;52.690;6.184;2023-04-01T20:07:37;6.40;99.90
53053;DHT22;38934;52.690;6.184;2023-04-01T20:10:16;6.40;99.90
53053;DHT22;38934;52.690;6.184;2023-04-01T20:12:47;6.40;99.90
53053;DHT22;38934;52.690;6.184;2023-04-01T20:15:22;6.40;99.90
53053;DHT22;38934;52.690;6.184;2023-04-01T20:17:48;6.40;99.90
53053;DHT22;38934;52.690;6.184;2023-04-01T20:20:23;6.40;99.90
53053;DHT22;38934;52.690;6.184;2023-04-01T20:25:52;6.30;99.90
53053;DHT22;38934;52.690;6.184;2023-04-01T20:34:12;6.30;99.90
53053;DHT22;38934;52.690;6.184;2023-04-01T20:37:10;6.30;99.90
53053;DHT22;38934;52.690;6.184;2023-04-01T20:51:23;6.20;99.90
53053;DHT22;38934;52.690;6.184;2023-04-01T20:59:57;6.20;99.90
53053;DHT22;38934;52.690;6.184;2023-04-01T21:02:47;6.10;99.90
53053;DHT22;38934;52.690;6.184;2023-04-01T21:08:26;6.10;99.90
53053;DHT22;38934;52.690;6.184;2023-04-01T21:11:20;6.10;99.90
53053;DHT22;38934;52.690;6.184;2023-04-01T21:13:51;6.10;99.90
53053;DHT22;38934;52.690;6.184;2023-04-01T21:21:46;6.00;99.90
53053;DHT22;38934;52.690;6.184;2023-04-01T21:24:35;6.00;99.90
53053;DHT22;38934;52.690;6.184;2023-04-01T21:29:57;6.00;99.90
53053;DHT22;38934;52.690;6.184;2023-04-01T21:32:45;6.00;99.90
53053;DHT22;38934;52.690;6.184;2023-04-01T21:40:43;5.90;99.90
53053;DHT22;38934;52.690;6.184;2023-04-01T21:52:06;5.80;99.90
53053;DHT22;38934;52.690;6.184;2023-04-01T21:57:55;5.80;99.90
53053;DHT22;38934;52.690;6.184;2023-04-01T22:03:29;5.80;99.90
53053;DHT22;38934;52.690;6.184;2023-04-01T22:06:38;5.80;99.90
53053;DHT22;38934;52.690;6.184;2023-04-01T22:14:16;5.70;99.90
53053;DHT22;38934;52.690;6.184;2023-04-01T22:20:03;5.70;99.90
53053;DHT22;38934;52.690;6.184;2023-04-01T22:25:19;6.00;99.90
53053;DHT22;38934;52.690;6.184;2023-04-01T22:27:58;6.10;99.90
53053;DHT22;38934;52.690;6.184;2023-04-01T22:30:34;5.60;99.90
53053;DHT22;38934;52.690;6.184;2023-04-01T22:36:11;5.60;99.90
53053;DHT22;38934;52.690;6.184;2023-04-01T22:39:04;5.60;99.90
53053;DHT22;38934;52.690;6.184;2023-04-01T22:44:01;5.50;99.90
53053;DHT22;38934;52.690;6.184;2023-04-01T22:46:48;5.50;99.90
53053;DHT22;38934;52.690;6.184;2023-04-01T22:49:32;5.50;99.90
53053;DHT22;38934;52.690;6.184;2023-04-01T22:52:14;5.50;99.90
53053;DHT22;38934;52.690;6.184;2023-04-01T22:54:52;5.50;99.90
53053;DHT22;38934;52.690;6.184;2023-04-01T22:57:40;5.40;99.90
53053;DHT22;38934;52.690;6.184;2023-04-01T23:00:16;5.40;99.90
53053;DHT22;38934;52.690;6.184;2023-04-01T23:03:04;5.40;99.90
53053;DHT22;38934;52.690;6.184;2023-04-01T23:05:35;5.40;99.90
53053;DHT22;38934;52.690;6.184;2023-04-01T23:10:56;5.40;99.90
53053;DHT22;38934;52.690;6.184;2023-04-01T23:13:32;5.40;99.90
53053;DHT22;38934;52.690;6.184;2023-04-01T23:16:00;5.40;99.90
53053;DHT22;38934;52.690;6.184;2023-04-01T23:19:18;5.40;99.90
53053;DHT22;38934;52.690;6.184;2023-04-01T23:21:52;5.30;99.90
53053;DHT22;38934;52.690;6.184;2023-04-01T23:24:30;5.30;99.90
53053;DHT22;38934;52.690;6.184;2023-04-01T23:27:12;5.30;99.90
53053;DHT22;38934;52.690;6.184;2023-04-01T23:29:42;5.30;99.90
53053;DHT22;38934;52.690;6.184;2023-04-01T23:32:18;5.30;99.90
53053;DHT22;38934;52.690;6.184;2023-04-01T23:34:53;5.20;99.90
53053;DHT22;38934;52.690;6.184;2023-04-01T23:37:22;5.80;99.90
53053;DHT22;38934;52.690;6.184;2023-04-01T23:39:54;5.20;99.90
53053;DHT22;38934;52.690;6.184;2023-04-01T23:42:28;5.20;99.90
53053;DHT22;38934;52.690;6.184;2023-04-01T23:44:57;5.20;99.90
53053;DHT22;38934;52.690;6.184;2023-04-01T23:47:30;5.20;99.90
53053;DHT22;38934;52.690;6.184;2023-04-01T23:49:59;5.20;99.90
53053;DHT22;38934;52.690;6.184;2023-04-01T23:52:35;5.20;99.90
53053;DHT22;38934;52.690;6.184;2023-04-01T23:55:17;5.20;99.90
